Time;durP1;ratioP1;P1;durP2;ratioP2;P2;SDS_P1;SDS_P2;PMS_P1;PMS_P2;Temp;Humidity;BMP_temperature;BMP_pressure;BME280_temperature;BME280_humidity;BME280_pressure;Samples;Min_cycle;Max_cycle;Signal;HPM_P1;HPM_P2
2023/04/14 00:00:51;;;;;;;0.30;0.30;;;4.70;99.90;;;;;;5032275;28;20675;-84
2023/04/14 00:03:16;;;;;;;0.40;0.40;;;4.60;99.90;;;;;;5009860;28;20241;-84
2023/04/14 00:05:42;;;;;;;0.30;0.30;;;4.70;99.90;;;;;;5011431;28;20191;-83
2023/04/14 00:08:07;;;;;;;0.37;0.37;;;4.60;99.90;;;;;;5026935;28;20650;-84
2023/04/14 00:10:33;;;;;;;0.30;0.30;;;4.60;99.90;;;;;;5008462;28;20191;-83
2023/04/14 00:13:00;;;;;;;0.37;0.37;;;4.60;99.90;;;;;;5026156;28;20192;-84
2023/04/14 00:15:25;;;;;;;0.30;0.30;;;4.70;99.90;;;;;;5008600;28;20246;-84
2023/04/14 00:17:51;;;;;;;0.40;0.40;;;4.70;99.90;;;;;;5011280;28;20450;-83
2023/04/14 00:20:17;;;;;;;0.30;0.30;;;4.90;99.90;;;;;;5024251;28;20188;-83
2023/04/14 00:22:43;;;;;;;0.40;0.40;;;4.90;99.90;;;;;;4998839;28;20533;-83
2023/04/14 00:25:09;;;;;;;0.30;0.30;;;4.70;99.90;;;;;;5025373;28;20191;-83
2023/04/14 00:27:34;;;;;;;0.40;0.40;;;4.80;99.90;;;;;;5008461;28;20187;-83
2023/04/14 00:30:00;;;;;;;0.30;0.30;;;4.60;99.90;;;;;;5028632;28;20457;-83
2023/04/14 00:32:25;;;;;;;0.40;0.40;;;4.50;99.90;;;;;;5029688;28;20203;-83
2023/04/14 00:34:51;;;;;;;0.30;0.30;;;4.50;99.90;;;;;;5029518;28;20266;-83
2023/04/14 00:37:16;;;;;;;0.40;0.40;;;4.50;99.90;;;;;;5031064;28;20211;-83
2023/04/14 00:39:42;;;;;;;0.40;0.40;;;4.40;99.90;;;;;;5011098;28;20679;-83
2023/04/14 00:42:07;;;;;;;0.40;0.40;;;4.40;99.90;;;;;;5012332;28;20206;-83
2023/04/14 00:44:33;;;;;;;0.30;0.30;;;4.60;99.90;;;;;;5012383;28;20640;-83
2023/04/14 00:47:00;;;;;;;0.30;0.30;;;4.60;99.90;;;;;;5011362;28;20193;-83
2023/04/14 00:49:27;;;;;;;0.40;0.40;;;4.70;99.90;;;;;;5010424;28;20309;-83
2023/04/14 00:51:53;;;;;;;0.40;0.40;;;4.60;99.90;;;;;;5028512;28;20482;-83
2023/04/14 00:54:19;;;;;;;0.30;0.30;;;4.60;99.90;;;;;;5013818;28;20481;-82
2023/04/14 00:56:46;;;;;;;0.30;0.30;;;4.60;99.90;;;;;;5007812;28;20438;-83
2023/04/14 00:59:12;;;;;;;0.40;0.40;;;4.70;99.90;;;;;;5005407;28;20533;-83
2023/04/14 01:01:39;;;;;;;0.30;0.30;;;4.50;99.90;;;;;;5008747;28;20442;-84
2023/04/14 01:04:05;;;;;;;0.30;0.30;;;4.40;99.90;;;;;;4992065;28;20451;-82
2023/04/14 01:06:31;;;;;;;0.40;0.40;;;4.50;99.90;;;;;;5009562;28;20438;-84
2023/04/14 01:08:58;;;;;;;0.30;0.30;;;4.50;99.90;;;;;;5027135;28;21024;-83
2023/04/14 01:11:40;;;;;;;0.40;0.40;;;4.30;99.90;;;;;;5027691;28;20441;-83
2023/04/14 01:14:25;;;;;;;0.30;0.30;;;4.20;99.90;;;;;;5028661;28;20533;-83
2023/04/14 01:16:55;;;;;;;0.33;0.33;;;4.20;99.90;;;;;;5020080;28;21025;-83
2023/04/14 01:19:23;;;;;;;0.30;0.30;;;4.10;99.90;;;;;;5029196;28;20437;-83
2023/04/14 01:22:02;;;;;;;0.40;0.40;;;3.90;99.90;;;;;;5006454;28;20445;-83
2023/04/14 01:25:01;;;;;;;0.40;0.40;;;3.90;99.90;;;;;;5021931;28;20485;-83
2023/04/14 01:27:45;;;;;;;0.40;0.40;;;3.80;99.90;;;;;;5025320;28;20499;-83
2023/04/14 01:30:30;;;;;;;0.40;0.40;;;4.00;99.90;;;;;;5026116;28;20441;-83
2023/04/14 01:33:00;;;;;;;0.40;0.40;;;4.00;99.90;;;;;;4999540;28;20443;-83
2023/04/14 01:35:35;;;;;;;0.40;0.40;;;3.80;99.90;;;;;;5008764;28;20486;-83
2023/04/14 01:38:13;;;;;;;0.40;0.40;;;4.00;99.90;;;;;;5002315;28;20443;-83
2023/04/14 01:40:40;;;;;;;0.40;0.40;;;3.90;99.90;;;;;;5021439;28;20588;-82
2023/04/14 01:43:10;;;;;;;0.40;0.40;;;3.90;99.90;;;;;;5004597;28;21248;-84
2023/04/14 01:45:40;;;;;;;0.40;0.40;;;3.70;99.90;;;;;;5023036;28;20944;-83
2023/04/14 01:48:06;;;;;;;0.40;0.40;;;3.70;99.90;;;;;;5029479;28;20440;-82
2023/04/14 01:50:34;;;;;;;0.40;0.40;;;3.70;99.90;;;;;;5026476;28;20816;-82
2023/04/14 01:53:02;;;;;;;0.40;0.40;;;3.70;99.90;;;;;;5010531;28;20442;-85
2023/04/14 01:55:29;;;;;;;0.40;0.40;;;3.60;99.90;;;;;;5012400;28;20508;-85
2023/04/14 01:57:56;;;;;;;0.40;0.40;;;3.60;99.90;;;;;;5010987;28;20443;-85
2023/04/14 02:00:24;;;;;;;0.40;0.40;;;3.50;99.90;;;;;;5022200;28;20455;-85
2023/04/14 02:02:53;;;;;;;0.40;0.40;;;3.40;99.90;;;;;;5010520;28;20797;-84
2023/04/14 02:05:20;;;;;;;0.40;0.40;;;3.40;99.90;;;;;;5009686;28;20478;-84
2023/04/14 02:07:48;;;;;;;0.40;0.40;;;3.50;99.90;;;;;;5012231;28;20466;-84
2023/04/14 02:10:19;;;;;;;0.40;0.40;;;3.40;99.90;;;;;;5029172;28;20974;-85
2023/04/14 02:12:47;;;;;;;0.40;0.40;;;3.40;99.90;;;;;;5020975;28;20522;-85
2023/04/14 02:15:16;;;;;;;0.40;0.40;;;3.50;99.90;;;;;;5020118;28;20500;-85
2023/04/14 02:17:43;;;;;;;0.40;0.40;;;3.40;99.90;;;;;;5029423;28;20988;-85
2023/04/14 02:20:11;;;;;;;0.40;0.40;;;3.40;99.90;;;;;;5029045;28;20496;-85
2023/04/14 02:22:37;;;;;;;0.40;0.40;;;3.40;99.90;;;;;;5001864;28;20428;-85
2023/04/14 02:25:03;;;;;;;0.40;0.40;;;3.50;99.90;;;;;;5004974;28;20497;-84
2023/04/14 02:27:30;;;;;;;0.40;0.40;;;3.50;99.90;;;;;;5021675;28;20674;-85
2023/04/14 02:29:58;;;;;;;0.40;0.40;;;3.50;99.90;;;;;;5024223;28;20449;-85
2023/04/14 02:32:29;;;;;;;0.30;0.30;;;3.40;99.90;;;;;;5011504;28;20445;-84
2023/04/14 02:34:59;;;;;;;0.40;0.40;;;3.30;99.90;;;;;;5009937;28;20468;-85
2023/04/14 02:37:30;;;;;;;0.40;0.40;;;3.20;99.90;;;;;;5010553;28;20458;-85
2023/04/14 02:40:02;;;;;;;0.40;0.40;;;3.20;99.90;;;;;;4995985;28;20435;-85
2023/04/14 02:42:30;;;;;;;0.40;0.40;;;3.20;99.90;;;;;;5020245;28;20538;-85
2023/04/14 02:45:02;;;;;;;0.33;0.33;;;3.10;99.90;;;;;;5004669;28;20447;-85
2023/04/14 02:47:32;;;;;;;0.40;0.40;;;3.20;99.90;;;;;;5021597;28;20922;-85
2023/04/14 02:50:00;;;;;;;0.40;0.40;;;3.20;99.90;;;;;;5013103;28;20512;-85
2023/04/14 02:52:30;;;;;;;0.40;0.40;;;3.30;99.90;;;;;;5028225;28;21036;-85
2023/04/14 02:54:57;;;;;;;0.37;0.37;;;3.20;99.90;;;;;;5024401;28;20520;-85
2023/04/14 02:57:24;;;;;;;0.47;0.47;;;3.10;99.90;;;;;;5015529;28;20439;-85
2023/04/14 02:59:51;;;;;;;0.40;0.40;;;3.00;99.90;;;;;;4992089;28;21095;-85
2023/04/14 03:02:19;;;;;;;0.40;0.40;;;2.90;99.90;;;;;;4996884;28;21029;-85
2023/04/14 03:04:45;;;;;;;0.40;0.40;;;2.80;99.90;;;;;;5015510;28;20438;-85
2023/04/14 03:07:13;;;;;;;0.40;0.40;;;2.90;99.90;;;;;;5009889;28;20488;-85
2023/04/14 03:09:40;;;;;;;0.33;0.33;;;2.70;99.90;;;;;;5020094;28;20504;-86
2023/04/14 03:12:06;;;;;;;0.50;0.50;;;2.60;99.90;;;;;;5028568;28;20454;-85
2023/04/14 03:14:33;;;;;;;0.40;0.40;;;2.50;99.90;;;;;;5009291;28;20501;-84
2023/04/14 03:17:01;;;;;;;0.30;0.30;;;2.60;99.90;;;;;;4991058;28;20483;-84
2023/04/14 03:19:28;;;;;;;0.40;0.40;;;2.60;99.90;;;;;;4996636;28;20650;-85
2023/04/14 03:21:54;;;;;;;0.40;0.40;;;2.70;99.90;;;;;;5007498;28;20437;-85
2023/04/14 03:24:23;;;;;;;0.40;0.40;;;2.80;99.90;;;;;;5000245;28;20443;-84
2023/04/14 03:27:13;;;;;;;0.40;0.40;;;2.80;99.90;;;;;;5018189;28;21179;-85
2023/04/14 03:29:46;;;;;;;0.40;0.40;;;2.80;99.90;;;;;;5013504;28;20445;-85
2023/04/14 03:32:14;;;;;;;0.40;0.40;;;2.70;99.90;;;;;;4996346;28;20446;-84
2023/04/14 03:34:42;;;;;;;0.40;0.40;;;2.70;99.90;;;;;;5012266;28;20478;-85
2023/04/14 03:37:08;;;;;;;0.40;0.40;;;2.40;99.90;;;;;;5001742;28;20806;-85
2023/04/14 03:39:37;;;;;;;0.30;0.30;;;2.40;99.90;;;;;;4991853;28;20950;-84
2023/04/14 03:42:06;;;;;;;0.50;0.50;;;2.50;99.90;;;;;;5024265;28;20461;-85
2023/04/14 03:44:35;;;;;;;0.40;0.40;;;2.60;99.90;;;;;;5010084;28;20676;-84
2023/04/14 03:47:02;;;;;;;0.50;0.50;;;2.50;99.90;;;;;;5023297;28;20474;-85
2023/04/14 03:49:32;;;;;;;0.40;0.40;;;2.50;99.90;;;;;;5010331;28;20553;-84
2023/04/14 03:52:03;;;;;;;0.40;0.40;;;2.50;99.90;;;;;;5022744;28;20439;-83
2023/04/14 03:54:31;;;;;;;0.50;0.50;;;2.50;99.90;;;;;;5013255;28;20470;-84
2023/04/14 03:56:58;;;;;;;0.40;0.40;;;2.40;99.90;;;;;;5028910;28;20450;-84
2023/04/14 03:59:28;;;;;;;0.50;0.50;;;2.20;99.90;;;;;;5013039;28;20434;-84
2023/04/14 04:01:54;;;;;;;0.50;0.50;;;2.30;99.90;;;;;;5010950;28;20499;-84
2023/04/14 04:04:22;;;;;;;0.50;0.50;;;2.30;99.90;;;;;;5032440;28;20451;-84
2023/04/14 04:06:49;;;;;;;0.50;0.50;;;2.40;99.90;;;;;;5026638;28;20526;-84
2023/04/14 04:09:16;;;;;;;0.40;0.40;;;2.40;99.90;;;;;;5030800;28;20450;-84
2023/04/14 04:11:44;;;;;;;0.40;0.40;;;2.40;99.90;;;;;;5029532;28;20457;-84
2023/04/14 04:14:12;;;;;;;0.50;0.50;;;2.40;99.90;;;;;;5028714;28;20981;-84
2023/04/14 04:16:41;;;;;;;0.40;0.40;;;2.30;99.90;;;;;;5010731;28;20478;-84
2023/04/14 04:19:07;;;;;;;0.50;0.50;;;2.30;99.90;;;;;;5030623;28;21203;-83
2023/04/14 04:21:35;;;;;;;0.50;0.50;;;2.20;99.90;;;;;;5029731;28;20461;-83
2023/04/14 04:24:03;;;;;;;0.40;0.40;;;2.20;99.90;;;;;;5027097;28;20534;-83
2023/04/14 04:26:29;;;;;;;0.30;0.30;;;2.40;99.90;;;;;;5028671;28;20446;-83
2023/04/14 04:28:59;;;;;;;0.50;0.50;;;2.20;99.90;;;;;;5030852;28;20969;-83
2023/04/14 04:31:26;;;;;;;0.50;0.50;;;2.30;99.90;;;;;;5025930;28;20188;-84
2023/04/14 04:33:52;;;;;;;0.43;0.43;;;2.40;99.90;;;;;;5009380;28;20450;-82
2023/04/14 04:36:18;;;;;;;0.50;0.50;;;2.40;99.90;;;;;;5011212;28;20647;-82
2023/04/14 04:38:44;;;;;;;0.40;0.40;;;2.50;99.90;;;;;;5008720;28;20187;-83
2023/04/14 04:41:22;;;;;;;0.40;0.40;;;2.50;99.90;;;;;;5008554;28;20450;-83
2023/04/14 04:43:47;;;;;;;0.50;0.50;;;2.50;99.90;;;;;;5026598;28;20191;-82
2023/04/14 04:46:43;;;;;;;0.40;0.40;;;2.50;99.90;;;;;;5028601;28;20441;-83
2023/04/14 04:49:08;;;;;;;0.50;0.50;;;2.50;99.90;;;;;;5007021;28;20216;-82
2023/04/14 04:51:34;;;;;;;0.40;0.40;;;2.50;99.90;;;;;;5005251;28;20470;-83
2023/04/14 04:53:59;;;;;;;0.50;0.50;;;2.50;99.90;;;;;;5017913;28;20187;-82
2023/04/14 04:56:26;;;;;;;0.33;0.33;;;2.40;99.90;;;;;;5022016;28;20667;-84
2023/04/14 04:58:51;;;;;;;0.40;0.40;;;2.50;99.90;;;;;;5031200;28;20179;-84
2023/04/14 05:01:18;;;;;;;0.40;0.40;;;2.50;99.90;;;;;;5000452;28;20488;-84
2023/04/14 05:03:44;;;;;;;0.50;0.50;;;2.50;99.90;;;;;;5024347;28;20268;-83
2023/04/14 05:06:10;;;;;;;0.30;0.30;;;2.50;99.90;;;;;;5027175;28;20541;-84
2023/04/14 05:08:35;;;;;;;0.47;0.47;;;2.50;99.90;;;;;;5029924;28;20533;-84
2023/04/14 05:11:01;;;;;;;0.50;0.50;;;2.50;99.90;;;;;;5006113;28;20962;-84
2023/04/14 05:13:26;;;;;;;0.40;0.40;;;2.50;99.90;;;;;;5007667;28;20279;-84
2023/04/14 05:16:01;;;;;;;0.40;0.40;;;2.70;99.90;;;;;;5005296;28;20239;-83
2023/04/14 05:18:27;;;;;;;0.40;0.40;;;2.80;99.90;;;;;;5003569;28;20183;-84
2023/04/14 05:20:52;;;;;;;0.40;0.40;;;2.80;99.90;;;;;;5008999;28;20450;-83
2023/04/14 05:23:18;;;;;;;0.50;0.50;;;2.90;99.90;;;;;;5026380;28;20492;-83
2023/04/14 05:25:43;;;;;;;0.50;0.50;;;2.90;99.90;;;;;;5010947;28;20659;-84
2023/04/14 05:28:09;;;;;;;0.50;0.50;;;2.80;99.90;;;;;;5028456;28;20199;-84
2023/04/14 05:30:34;;;;;;;0.40;0.40;;;2.80;99.90;;;;;;5021297;28;20187;-82
2023/04/14 05:33:00;;;;;;;0.40;0.40;;;2.90;99.90;;;;;;5025063;28;20195;-88
2023/04/14 05:35:25;;;;;;;0.40;0.40;;;3.00;99.90;;;;;;5017837;28;20310;-86
2023/04/14 05:37:51;;;;;;;0.40;0.40;;;3.10;99.90;;;;;;5006203;28;20257;-86
2023/04/14 05:40:16;;;;;;;0.40;0.40;;;3.20;99.90;;;;;;5025143;28;20206;-86
2023/04/14 05:42:42;;;;;;;0.40;0.40;;;3.30;99.90;;;;;;5025878;28;20186;-87
2023/04/14 05:45:08;;;;;;;0.40;0.40;;;3.40;99.90;;;;;;5021546;28;20241;-86
2023/04/14 05:47:34;;;;;;;0.40;0.40;;;3.40;99.90;;;;;;5029094;28;20191;-85
2023/04/14 05:49:59;;;;;;;0.40;0.40;;;3.60;99.90;;;;;;5023893;28;20852;-86
2023/04/14 05:52:25;;;;;;;0.40;0.40;;;3.50;99.90;;;;;;5016228;28;20233;-86
2023/04/14 05:54:50;;;;;;;0.30;0.30;;;3.70;99.90;;;;;;5024675;28;20215;-87
2023/04/14 05:57:16;;;;;;;0.33;0.33;;;3.80;99.90;;;;;;5019148;28;20191;-86
2023/04/14 05:59:41;;;;;;;0.40;0.40;;;4.00;99.90;;;;;;5021850;28;20188;-86
2023/04/14 06:02:07;;;;;;;0.30;0.30;;;4.00;99.90;;;;;;5023354;28;20554;-86
2023/04/14 06:04:32;;;;;;;0.40;0.40;;;4.10;99.90;;;;;;5027943;28;20199;-85
2023/04/14 06:06:58;;;;;;;0.30;0.30;;;4.20;99.90;;;;;;5025265;28;20365;-86
2023/04/14 06:09:24;;;;;;;0.40;0.40;;;4.20;99.90;;;;;;5007584;28;20274;-86
2023/04/14 06:11:49;;;;;;;0.40;0.40;;;4.30;99.90;;;;;;5022183;28;20180;-86
2023/04/14 06:14:15;;;;;;;0.40;0.40;;;4.40;99.90;;;;;;5020966;28;20188;-85
2023/04/14 06:16:40;;;;;;;0.30;0.30;;;4.50;99.90;;;;;;5010117;28;20373;-86
2023/04/14 06:19:06;;;;;;;0.40;0.40;;;4.50;99.90;;;;;;5027612;28;20651;-86
2023/04/14 06:21:31;;;;;;;0.40;0.40;;;4.70;99.90;;;;;;4999863;28;20848;-86
2023/04/14 06:23:57;;;;;;;0.37;0.37;;;4.70;99.90;;;;;;5013912;28;20188;-84
2023/04/14 06:26:23;;;;;;;0.40;0.40;;;4.80;99.90;;;;;;5023749;28;20882;-86
2023/04/14 06:28:49;;;;;;;0.40;0.40;;;5.00;99.90;;;;;;5020410;28;20188;-84
2023/04/14 06:31:15;;;;;;;0.30;0.30;;;5.30;99.90;;;;;;5017882;28;20450;-84
2023/04/14 06:33:40;;;;;;;0.30;0.30;;;5.40;99.90;;;;;;5017241;28;20195;-86
2023/04/14 06:36:06;;;;;;;0.30;0.30;;;5.60;99.90;;;;;;5017709;28;20600;-86
2023/04/14 06:38:31;;;;;;;0.30;0.30;;;5.60;99.90;;;;;;5000776;28;20563;-86
2023/04/14 06:40:58;;;;;;;0.30;0.30;;;5.80;99.90;;;;;;4996820;28;20567;-84
2023/04/14 06:43:24;;;;;;;0.30;0.30;;;6.00;99.90;;;;;;5023160;28;20774;-84
2023/04/14 06:45:49;;;;;;;0.30;0.30;;;6.00;99.90;;;;;;5004532;28;20442;-84
2023/04/14 06:48:15;;;;;;;0.30;0.30;;;6.10;99.90;;;;;;5018823;28;20715;-86
2023/04/14 06:50:40;;;;;;;0.30;0.30;;;6.30;99.90;;;;;;5024778;28;20608;-86
2023/04/14 06:53:08;;;;;;;0.30;0.30;;;6.40;99.90;;;;;;5027548;28;20982;-86
2023/04/14 06:55:35;;;;;;;0.30;0.30;;;6.50;99.90;;;;;;5008693;28;20264;-85
2023/04/14 06:58:00;;;;;;;0.30;0.30;;;6.60;99.90;;;;;;5024087;28;21038;-85
2023/04/14 07:00:26;;;;;;;0.20;0.20;;;6.70;99.90;;;;;;5023157;28;20486;-85
2023/04/14 07:02:51;;;;;;;0.20;0.20;;;7.10;99.90;;;;;;5032189;28;20191;-85
2023/04/14 07:05:17;;;;;;;0.30;0.30;;;7.20;99.90;;;;;;5022192;28;20187;-83
2023/04/14 07:07:43;;;;;;;0.30;0.30;;;7.30;99.90;;;;;;5017793;28;20659;-86
2023/04/14 07:10:09;;;;;;;0.20;0.20;;;7.40;99.90;;;;;;5006691;28;20195;-86
2023/04/14 07:12:34;;;;;;;0.20;0.20;;;7.50;99.90;;;;;;5031722;28;20254;-87
2023/04/14 07:15:00;;;;;;;0.20;0.20;;;7.60;99.90;;;;;;5030168;28;20473;-84
2023/04/14 07:17:25;;;;;;;0.30;0.30;;;7.90;99.90;;;;;;5028112;28;20235;-84
2023/04/14 07:19:51;;;;;;;0.20;0.20;;;8.00;99.90;;;;;;5010371;28;20195;-84
2023/04/14 07:22:16;;;;;;;0.20;0.20;;;8.20;99.90;;;;;;5004472;28;20188;-83
2023/04/14 07:24:41;;;;;;;0.20;0.20;;;8.30;99.90;;;;;;5011763;28;20208;-82
2023/04/14 07:27:13;;;;;;;0.20;0.20;;;8.60;99.90;;;;;;5030211;28;20255;-81
2023/04/14 07:29:40;;;;;;;0.20;0.20;;;8.50;99.90;;;;;;5000652;28;20179;-85
2023/04/14 07:32:06;;;;;;;0.20;0.20;;;8.70;99.90;;;;;;5005574;28;20528;-83
2023/04/14 07:34:32;;;;;;;0.20;0.20;;;8.80;99.90;;;;;;5008056;28;20592;-87
2023/04/14 07:36:57;;;;;;;0.20;0.20;;;8.90;99.90;;;;;;5025615;28;20446;-86
2023/04/14 07:39:23;;;;;;;0.20;0.20;;;9.10;99.90;;;;;;5015250;28;20440;-87
2023/04/14 07:41:48;;;;;;;0.20;0.20;;;9.30;99.90;;;;;;5030923;28;20262;-86
2023/04/14 07:44:14;;;;;;;0.20;0.20;;;9.50;99.90;;;;;;5010944;28;20214;-87
2023/04/14 07:46:40;;;;;;;0.20;0.20;;;9.50;99.90;;;;;;5024292;28;20198;-88
2023/04/14 07:49:05;;;;;;;0.20;0.20;;;9.50;99.90;;;;;;5030753;28;20256;-86
2023/04/14 07:51:31;;;;;;;0.20;0.20;;;9.70;99.90;;;;;;5030275;28;20202;-86
2023/04/14 07:53:57;;;;;;;0.20;0.20;;;9.70;99.90;;;;;;5007269;28;20180;-87
2023/04/14 07:56:22;;;;;;;0.20;0.20;;;9.60;99.90;;;;;;5014210;28;20478;-86
2023/04/14 07:58:48;;;;;;;0.20;0.20;;;9.70;99.90;;;;;;5026715;28;20183;-85
2023/04/14 08:01:13;;;;;;;0.20;0.20;;;9.80;99.90;;;;;;5018215;28;20274;-86
2023/04/14 08:03:39;;;;;;;0.20;0.20;;;9.90;99.90;;;;;;5025337;28;20183;-84
2023/04/14 08:06:06;;;;;;;0.20;0.20;;;9.90;99.90;;;;;;5002219;28;20558;-86
2023/04/14 08:08:32;;;;;;;0.20;0.20;;;10.10;99.90;;;;;;5009293;28;20253;-84
2023/04/14 08:10:58;;;;;;;0.20;0.20;;;10.30;99.90;;;;;;5009023;28;20544;-85
2023/04/14 08:13:23;;;;;;;0.20;0.20;;;10.30;99.90;;;;;;5010549;28;20476;-85
2023/04/14 08:15:49;;;;;;;0.20;0.20;;;10.30;99.90;;;;;;4999799;28;20251;-85
2023/04/14 08:18:15;;;;;;;0.20;0.20;;;10.20;99.90;;;;;;5007129;28;20184;-85
2023/04/14 08:20:40;;;;;;;0.20;0.20;;;10.10;99.90;;;;;;4990991;28;20192;-84
2023/04/14 08:23:06;;;;;;;0.20;0.20;;;10.20;99.90;;;;;;4987378;28;21011;-83
2023/04/14 08:25:32;;;;;;;0.20;0.20;;;10.20;99.90;;;;;;5001008;28;20726;-83
2023/04/14 08:27:57;;;;;;;0.20;0.20;;;10.10;99.90;;;;;;4997341;28;20676;-83
2023/04/14 08:30:23;;;;;;;0.20;0.20;;;10.20;99.90;;;;;;4991248;28;20188;-84
2023/04/14 08:32:48;;;;;;;0.20;0.20;;;10.30;99.90;;;;;;4994465;28;20192;-83
2023/04/14 08:35:14;;;;;;;0.20;0.20;;;10.30;99.90;;;;;;5009585;28;20224;-84
2023/04/14 08:37:40;;;;;;;0.20;0.20;;;10.40;99.90;;;;;;4991883;28;20247;-83
2023/04/14 08:40:09;;;;;;;0.20;0.20;;;10.30;99.90;;;;;;5008891;28;20195;-84
2023/04/14 08:42:34;;;;;;;0.20;0.20;;;10.30;99.90;;;;;;4991673;28;20487;-84
2023/04/14 08:45:00;;;;;;;0.20;0.20;;;10.40;99.90;;;;;;4987163;28;20455;-84
2023/04/14 08:47:28;;;;;;;0.20;0.20;;;10.50;99.90;;;;;;4989905;28;20210;-84
2023/04/14 08:50:15;;;;;;;0.20;0.20;;;10.60;99.90;;;;;;4993311;28;20180;-84
2023/04/14 08:52:42;;;;;;;0.13;0.13;;;10.60;99.90;;;;;;5010322;28;20438;-83
2023/04/14 08:55:09;;;;;;;0.10;0.10;;;10.60;99.90;;;;;;4994892;28;20565;-84
2023/04/14 08:57:36;;;;;;;0.10;0.10;;;10.60;99.90;;;;;;4995781;28;20458;-84
2023/04/14 09:00:03;;;;;;;0.20;0.20;;;10.80;99.90;;;;;;4985943;28;20470;-84
2023/04/14 09:02:31;;;;;;;0.20;0.20;;;10.80;99.90;;;;;;4991827;28;21245;-87
2023/04/14 09:04:58;;;;;;;0.10;0.10;;;10.80;99.90;;;;;;4989116;28;20445;-85
2023/04/14 09:07:24;;;;;;;0.10;0.10;;;10.90;99.90;;;;;;4988805;28;20450;-84
2023/04/14 09:09:50;;;;;;;0.20;0.20;;;10.90;99.90;;;;;;4986461;28;20442;-86
2023/04/14 09:12:16;;;;;;;0.13;0.13;;;10.90;99.90;;;;;;4990810;28;20192;-84
2023/04/14 09:14:43;;;;;;;0.20;0.20;;;11.00;99.90;;;;;;5002654;28;20545;-83
2023/04/14 09:17:09;;;;;;;0.20;0.20;;;11.10;99.90;;;;;;5003658;28;20545;-83
2023/04/14 09:19:35;;;;;;;0.10;0.10;;;11.10;99.90;;;;;;5003708;28;20857;-84
2023/04/14 09:22:01;;;;;;;0.10;0.10;;;11.20;99.90;;;;;;5010451;28;20191;-84
2023/04/14 09:24:28;;;;;;;0.20;0.20;;;11.20;99.90;;;;;;4990683;28;20450;-83
2023/04/14 09:26:54;;;;;;;0.20;0.20;;;11.20;99.90;;;;;;4991766;28;20476;-83
2023/04/14 09:29:20;;;;;;;0.20;0.20;;;11.30;99.90;;;;;;4988444;28;20450;-83
2023/04/14 09:31:46;;;;;;;0.20;0.20;;;11.20;99.90;;;;;;5002358;28;20431;-83
2023/04/14 09:34:17;;;;;;;0.20;0.20;;;11.20;99.90;;;;;;4998458;28;20647;-82
2023/04/14 09:37:02;;;;;;;0.20;0.20;;;11.10;99.90;;;;;;5003973;28;20615;-83
2023/04/14 09:39:27;;;;;;;0.20;0.20;;;11.10;99.90;;;;;;5008644;28;20459;-83
2023/04/14 09:41:53;;;;;;;0.10;0.10;;;11.00;99.90;;;;;;5015649;28;20531;-83
2023/04/14 09:44:19;;;;;;;0.20;0.20;;;11.10;99.90;;;;;;5007558;28;20191;-84
2023/04/14 09:47:04;;;;;;;0.20;0.20;;;11.20;99.90;;;;;;5010618;28;20184;-83
2023/04/14 09:49:30;;;;;;;0.10;0.10;;;11.10;99.90;;;;;;5001784;28;20207;-83
2023/04/14 09:52:04;;;;;;;0.10;0.10;;;11.20;99.90;;;;;;4985568;28;20983;-84
2023/04/14 09:54:30;;;;;;;0.20;0.20;;;11.10;99.90;;;;;;4986347;28;20211;-84
2023/04/14 09:56:56;;;;;;;0.20;0.20;;;11.10;99.90;;;;;;4990256;28;20459;-85
2023/04/14 09:59:38;;;;;;;0.20;0.20;;;11.20;99.90;;;;;;4988277;28;20443;-84
2023/04/14 10:02:05;;;;;;;0.20;0.20;;;11.10;99.90;;;;;;5007699;28;20938;-84
2023/04/14 10:04:31;;;;;;;0.20;0.20;;;11.10;99.90;;;;;;5006743;28;20443;-84
2023/04/14 10:06:57;;;;;;;0.20;0.20;;;11.20;99.90;;;;;;4988268;28;20442;-84
2023/04/14 10:09:26;;;;;;;0.10;0.10;;;11.10;99.90;;;;;;5004967;28;20218;-85
2023/04/14 10:12:14;;;;;;;0.10;0.10;;;11.30;99.90;;;;;;5008629;28;20494;-85
2023/04/14 10:14:41;;;;;;;0.10;0.10;;;11.30;99.90;;;;;;5004511;28;21059;-85
2023/04/14 10:17:08;;;;;;;0.10;0.10;;;11.30;99.90;;;;;;5000025;28;20573;-85
2023/04/14 10:19:35;;;;;;;0.20;0.20;;;11.20;99.90;;;;;;5008359;28;20446;-86
2023/04/14 10:22:01;;;;;;;0.20;0.20;;;11.40;99.90;;;;;;4986025;28;20445;-85
2023/04/14 10:24:26;;;;;;;0.20;0.20;;;11.30;99.90;;;;;;4987164;28;20444;-85
2023/04/14 10:26:52;;;;;;;0.10;0.10;;;11.40;99.90;;;;;;5006222;28;20435;-85
2023/04/14 10:29:18;;;;;;;0.20;0.20;;;11.40;99.90;;;;;;5002235;28;20279;-85
2023/04/14 10:31:54;;;;;;;0.20;0.20;;;11.60;99.90;;;;;;4986441;28;20435;-87
2023/04/14 10:34:22;;;;;;;0.10;0.10;;;11.60;99.90;;;;;;5004906;28;20195;-83
2023/04/14 10:36:48;;;;;;;0.10;0.10;;;11.60;99.90;;;;;;4993152;28;20451;-83
2023/04/14 10:39:23;;;;;;;0.10;0.10;;;11.60;99.90;;;;;;5019071;28;20536;-83
2023/04/14 10:41:50;;;;;;;0.10;0.10;;;11.60;99.90;;;;;;5008191;28;20438;-83
2023/04/14 10:44:31;;;;;;;0.20;0.20;;;11.80;99.90;;;;;;5002840;28;20456;-83
2023/04/14 10:47:00;;;;;;;0.10;0.10;;;11.70;99.90;;;;;;5016478;28;20951;-83
2023/04/14 10:49:33;;;;;;;0.10;0.10;;;11.70;99.90;;;;;;5009268;28;20457;-83
2023/04/14 10:52:05;;;;;;;0.10;0.10;;;11.60;99.90;;;;;;4988427;28;20446;-83
2023/04/14 10:54:59;;;;;;;0.10;0.10;;;11.60;99.90;;;;;;5004455;28;20439;-84
2023/04/14 10:57:26;;;;;;;0.10;0.10;;;11.50;99.90;;;;;;5001884;28;20475;-85
2023/04/14 10:59:57;;;;;;;0.10;0.10;;;11.50;99.90;;;;;;4996153;28;20454;-85
2023/04/14 11:02:30;;;;;;;0.20;0.20;;;11.40;99.90;;;;;;5004702;28;20447;-82
2023/04/14 11:05:10;;;;;;;0.10;0.10;;;11.40;99.90;;;;;;5012863;28;20461;-83
2023/04/14 11:07:53;;;;;;;0.10;0.10;;;11.70;99.90;;;;;;5001393;28;20809;-84
2023/04/14 11:10:19;;;;;;;0.10;0.10;;;11.90;99.90;;;;;;4996233;28;20467;-83
2023/04/14 11:12:46;;;;;;;0.10;0.10;;;12.00;99.90;;;;;;4996219;28;20434;-84
2023/04/14 11:15:13;;;;;;;0.10;0.10;;;12.10;99.90;;;;;;5018454;28;20485;-83
2023/04/14 11:17:40;;;;;;;0.10;0.10;;;12.30;99.90;;;;;;5032187;28;20454;-81
2023/04/14 11:20:14;;;;;;;0.10;0.10;;;12.20;99.90;;;;;;5028692;28;20503;-83
2023/04/14 11:22:41;;;;;;;0.10;0.10;;;12.20;99.90;;;;;;5028714;28;20867;-83
2023/04/14 11:25:09;;;;;;;0.10;0.10;;;12.20;99.90;;;;;;5013803;28;20449;-83
2023/04/14 11:27:36;;;;;;;0.10;0.10;;;12.60;99.90;;;;;;5031203;28;20450;-84
2023/04/14 11:30:02;;;;;;;0.10;0.10;;;12.40;99.90;;;;;;5031867;28;20440;-83
2023/04/14 11:32:28;;;;;;;0.10;0.10;;;12.50;99.90;;;;;;5031009;28;20503;-84
2023/04/14 11:34:54;;;;;;;0.10;0.10;;;12.70;99.90;;;;;;5011957;28;20472;-83
2023/04/14 11:37:19;;;;;;;0.10;0.10;;;12.80;99.90;;;;;;5030788;28;20540;-83
2023/04/14 11:39:47;;;;;;;0.10;0.10;;;12.70;99.90;;;;;;5027866;28;20184;-84
2023/04/14 11:42:13;;;;;;;0.10;0.10;;;12.70;99.90;;;;;;4998472;28;20191;-83
2023/04/14 11:44:38;;;;;;;0.10;0.10;;;12.70;99.90;;;;;;5008929;28;20525;-83
2023/04/14 11:47:04;;;;;;;0.10;0.10;;;12.60;99.90;;;;;;5029366;28;20604;-83
2023/04/14 11:49:34;;;;;;;0.10;0.10;;;12.70;99.90;;;;;;5009897;28;20208;-83
2023/04/14 11:52:05;;;;;;;0.10;0.10;;;12.70;99.90;;;;;;4989288;28;20196;-83
2023/04/14 11:54:38;;;;;;;0.10;0.10;;;12.80;99.90;;;;;;5017336;28;20497;-83
2023/04/14 11:57:12;;;;;;;0.10;0.10;;;12.80;99.90;;;;;;4987631;28;20955;-82
2023/04/14 11:59:42;;;;;;;0.10;0.10;;;12.90;99.90;;;;;;5010152;28;21287;-82
2023/04/14 12:02:18;;;;;;;0.10;0.10;;;12.70;99.90;;;;;;5027019;28;20438;-82
2023/04/14 12:04:45;;;;;;;0.10;0.10;;;12.70;99.90;;;;;;5024243;28;20458;-83
2023/04/14 12:07:16;;;;;;;0.10;0.10;;;12.70;99.90;;;;;;5023814;28;20458;-83
2023/04/14 12:09:43;;;;;;;0.10;0.10;;;12.50;99.90;;;;;;5006826;28;20455;-84
2023/04/14 12:12:10;;;;;;;0.10;0.10;;;12.50;99.90;;;;;;5030158;28;20469;-82
2023/04/14 12:14:40;;;;;;;0.10;0.10;;;12.50;99.90;;;;;;5025026;28;20480;-81
2023/04/14 12:17:07;;;;;;;0.10;0.10;;;12.40;99.90;;;;;;5011143;28;20485;-81
2023/04/14 12:19:34;;;;;;;0.20;0.20;;;12.50;99.90;;;;;;5006040;28;20507;-82
2023/04/14 12:22:00;;;;;;;0.10;0.10;;;12.50;99.90;;;;;;5009949;28;20476;-81
2023/04/14 12:24:40;;;;;;;0.10;0.10;;;12.50;99.90;;;;;;5028514;28;20958;-81
2023/04/14 12:27:08;;;;;;;0.10;0.10;;;12.40;99.90;;;;;;5030441;28;20552;-82
2023/04/14 12:29:35;;;;;;;0.20;0.20;;;12.30;99.90;;;;;;5024882;28;20934;-80
2023/04/14 12:32:02;;;;;;;0.10;0.10;;;12.10;99.90;;;;;;5009056;28;20481;-81
2023/04/14 12:34:28;;;;;;;0.10;0.10;;;12.30;99.90;;;;;;5025391;28;20533;-82
2023/04/14 12:36:55;;;;;;;0.10;0.10;;;12.30;99.90;;;;;;5028191;28;20650;-82
2023/04/14 12:39:21;;;;;;;0.10;0.10;;;12.50;99.90;;;;;;5012788;28;20183;-82
2023/04/14 12:41:47;;;;;;;0.10;0.10;;;12.30;99.90;;;;;;5026768;28;21167;-81
2023/04/14 12:44:15;;;;;;;0.10;0.10;;;12.30;99.90;;;;;;5009414;28;20438;-81
2023/04/14 12:46:48;;;;;;;0.10;0.10;;;12.20;99.90;;;;;;5021419;28;20438;-81
2023/04/14 12:49:35;;;;;;;0.10;0.10;;;12.10;99.90;;;;;;5023485;28;20445;-82
2023/04/14 12:52:01;;;;;;;0.10;0.10;;;12.20;99.90;;;;;;5025566;28;21026;-80
2023/04/14 12:54:47;;;;;;;0.10;0.10;;;12.30;99.90;;;;;;5009532;28;20439;-80
2023/04/14 12:57:13;;;;;;;0.10;0.10;;;12.30;99.90;;;;;;5018093;28;20645;-81